Time;durP1;ratioP1;P1;durP2;ratioP2;P2;SDS_P1;SDS_P2;PMS_P1;PMS_P2;Temp;Humidity;BMP_temperature;BMP_pressure;BME280_temperature;BME280_humidity;BME280_pressure;Samples;Min_cycle;Max_cycle;Signal;HPM_P1;HPM_P2
2023/04/13 00:00:46;;;;;;;4.18;0.55;;;;;;;5.24;100.00;94690.13;5063718;28;24455;-74
2023/04/13 00:03:15;;;;;;;1.85;0.70;;;;;;;5.04;100.00;94696.41;5056607;28;24435;-74
2023/04/13 00:05:42;;;;;;;2.00;0.52;;;;;;;5.03;100.00;94703.28;5057684;28;24443;-74
2023/04/13 00:08:09;;;;;;;2.60;0.50;;;;;;;5.03;100.00;94703.28;5060372;28;24462;-74
2023/04/13 00:10:39;;;;;;;1.88;0.57;;;;;;;5.00;100.00;94707.75;5053380;28;24776;-75
2023/04/13 00:13:08;;;;;;;0.95;0.47;;;;;;;5.06;100.00;94705.66;5057532;28;24450;-74
2023/04/13 00:15:37;;;;;;;1.75;0.52;;;;;;;5.10;100.00;94706.31;5057214;28;24439;-74
2023/04/13 00:18:04;;;;;;;0.68;0.40;;;;;;;4.97;100.00;94710.50;5052768;28;24439;-74
2023/04/13 00:20:30;;;;;;;1.17;0.40;;;;;;;5.07;100.00;94703.94;5054786;28;24438;-75
2023/04/13 00:22:57;;;;;;;1.23;0.50;;;;;;;5.12;100.00;94706.22;5059158;28;24443;-74
2023/04/13 00:25:23;;;;;;;1.37;0.50;;;;;;;5.10;100.00;94709.72;5058368;28;24446;-75
2023/04/13 00:27:51;;;;;;;1.30;0.60;;;;;;;5.17;100.00;94714.50;5062156;28;24441;-75
2023/04/13 00:30:21;;;;;;;1.38;0.40;;;;;;;5.15;100.00;94706.03;5058437;28;24441;-74
2023/04/13 00:32:48;;;;;;;1.10;0.40;;;;;;;5.19;100.00;94710.94;5054120;28;24528;-74
2023/04/13 00:35:17;;;;;;;0.73;0.40;;;;;;;5.12;100.00;94711.34;5056876;28;24441;-75
2023/04/13 00:37:46;;;;;;;2.05;0.50;;;;;;;5.09;100.00;94702.94;5054230;28;24936;-75
2023/04/13 00:40:15;;;;;;;3.03;0.70;;;;;;;5.22;100.00;94704.78;5057211;28;24442;-74
2023/04/13 00:42:43;;;;;;;3.00;0.60;;;;;;;5.21;100.00;94696.25;5058208;28;24586;-74
2023/04/13 00:45:10;;;;;;;1.73;0.60;;;;;;;5.15;100.00;94703.47;5061342;28;24454;-74
2023/04/13 00:47:40;;;;;;;1.52;0.77;;;;;;;5.01;100.00;94709.44;5064933;28;24525;-74
2023/04/13 00:50:07;;;;;;;1.58;0.57;;;;;;;5.13;100.00;94713.03;5056230;28;24442;-74
2023/04/13 00:52:36;;;;;;;1.40;0.50;;;;;;;5.11;100.00;94710.53;5060171;28;24481;-74
2023/04/13 00:55:05;;;;;;;2.22;0.50;;;;;;;5.02;100.00;94709.34;5059853;28;25000;-74
2023/04/13 00:57:33;;;;;;;2.58;0.73;;;;;;;4.99;100.00;94704.38;5057281;28;24439;-74
2023/04/13 00:59:59;;;;;;;1.67;0.75;;;;;;;4.90;100.00;94701.53;5062731;28;25288;-75
2023/04/13 01:02:26;;;;;;;2.30;0.88;;;;;;;4.68;100.00;94702.75;5056475;28;25028;-74
2023/04/13 01:04:54;;;;;;;1.42;0.50;;;;;;;4.67;100.00;94703.63;5058469;28;24443;-74
2023/04/13 01:07:26;;;;;;;1.40;0.60;;;;;;;4.72;100.00;94701.66;5055897;28;24434;-74
2023/04/13 01:10:04;;;;;;;2.13;0.63;;;;;;;4.79;100.00;94704.72;5052930;28;24793;-75
2023/04/13 01:12:38;;;;;;;3.80;0.63;;;;;;;4.60;100.00;94695.50;5053810;28;24457;-75
2023/04/13 01:15:10;;;;;;;2.72;0.80;;;;;;;4.54;100.00;94705.25;5062589;28;24427;-74
2023/04/13 01:17:38;;;;;;;1.27;0.43;;;;;;;4.51;100.00;94708.00;5054270;28;24836;-74
2023/04/13 01:20:10;;;;;;;1.42;0.50;;;;;;;4.52;100.00;94707.06;5058351;28;24442;-74
2023/04/13 01:22:40;;;;;;;2.35;0.50;;;;;;;4.54;100.00;94707.81;5054527;28;24470;-74
2023/04/13 01:25:24;;;;;;;2.43;0.50;;;;;;;4.42;100.00;94709.34;5056752;28;24467;-74
2023/04/13 01:27:55;;;;;;;1.55;0.60;;;;;;;4.33;100.00;94699.59;5056715;28;24474;-75
2023/04/13 01:30:26;;;;;;;0.88;0.50;;;;;;;4.33;100.00;94702.97;5058646;28;24443;-75
2023/04/13 01:32:53;;;;;;;1.90;0.60;;;;;;;4.19;100.00;94704.63;5061765;28;24538;-75
2023/04/13 01:35:21;;;;;;;3.63;1.00;;;;;;;4.12;100.00;94699.03;5057294;28;24435;-74
2023/04/13 01:37:49;;;;;;;2.03;0.60;;;;;;;4.15;100.00;94698.84;5058358;28;25007;-74
2023/04/13 01:40:15;;;;;;;3.33;0.73;;;;;;;4.17;100.00;94694.47;5064817;28;24482;-75
2023/04/13 01:42:43;;;;;;;1.10;0.52;;;;;;;4.05;100.00;94693.44;5053015;28;24459;-75
2023/04/13 01:45:16;;;;;;;2.42;0.70;;;;;;;4.04;100.00;94685.81;5060027;28;24434;-74
2023/04/13 01:47:49;;;;;;;2.88;0.60;;;;;;;3.94;100.00;94679.56;5056670;28;24525;-74
2023/04/13 01:50:24;;;;;;;2.55;0.75;;;;;;;3.93;100.00;94678.72;5060009;28;24523;-75
2023/04/13 01:52:53;;;;;;;0.85;0.30;;;;;;;3.92;100.00;94671.09;5059275;28;24470;-74
2023/04/13 01:55:22;;;;;;;1.48;0.50;;;;;;;3.79;100.00;94658.97;5056930;28;24435;-73
2023/04/13 01:57:50;;;;;;;2.35;0.60;;;;;;;3.80;100.00;94665.75;5070150;28;24434;-74
2023/04/13 02:00:19;;;;;;;1.50;0.50;;;;;;;3.82;100.00;94665.66;5072846;28;24991;-74
2023/04/13 02:02:45;;;;;;;3.55;0.80;;;;;;;3.88;100.00;94657.63;5055591;28;25035;-74
2023/04/13 02:05:12;;;;;;;2.85;0.60;;;;;;;3.90;100.00;94663.53;5067011;28;24468;-74
2023/04/13 02:07:40;;;;;;;1.05;0.50;;;;;;;3.77;100.00;94655.66;5065723;28;25052;-74
2023/04/13 02:10:07;;;;;;;1.63;0.50;;;;;;;3.80;100.00;94663.19;5048368;28;24441;-74
2023/04/13 02:12:34;;;;;;;2.63;0.77;;;;;;;3.80;100.00;94660.63;5061333;28;24439;-74
2023/04/13 02:15:01;;;;;;;1.90;0.47;;;;;;;3.82;100.00;94660.53;5058790;28;25095;-74
2023/04/13 02:17:29;;;;;;;2.33;0.77;;;;;;;3.75;100.00;94654.09;5078870;28;24442;-74
2023/04/13 02:19:56;;;;;;;1.92;0.77;;;;;;;3.81;100.00;94657.13;5058512;28;24439;-74
2023/04/13 02:22:22;;;;;;;2.53;0.60;;;;;;;3.84;100.00;94653.59;5054136;28;24515;-74
2023/04/13 02:24:50;;;;;;;3.43;0.67;;;;;;;3.96;100.00;94658.03;5058794;28;24438;-74
2023/04/13 02:27:16;;;;;;;3.00;0.70;;;;;;;3.95;100.00;94660.69;5051227;28;24493;-74
2023/04/13 02:29:43;;;;;;;3.78;0.88;;;;;;;3.95;100.00;94666.66;5061452;28;24450;-74
2023/04/13 02:32:10;;;;;;;2.40;0.60;;;;;;;4.03;100.00;94673.91;5051965;28;25068;-74
2023/04/13 02:34:37;;;;;;;3.78;0.70;;;;;;;3.86;100.00;94667.97;5064315;28;24442;-73
2023/04/13 02:37:08;;;;;;;2.05;0.82;;;;;;;4.00;100.00;94664.66;5055633;28;24439;-74
2023/04/13 02:39:34;;;;;;;2.50;1.00;;;;;;;3.96;100.00;94665.72;5055126;28;24459;-73
2023/04/13 02:42:01;;;;;;;2.13;0.73;;;;;;;4.11;100.00;94661.50;5054302;28;24530;-74
2023/04/13 02:44:29;;;;;;;3.67;1.10;;;;;;;4.12;100.00;94664.00;5060561;28;24435;-74
2023/04/13 02:46:55;;;;;;;3.00;0.80;;;;;;;3.92;100.00;94666.81;5063956;28;24445;-74
2023/04/13 02:49:22;;;;;;;2.10;0.70;;;;;;;3.93;100.00;94660.78;5055506;28;24437;-74
2023/04/13 02:51:49;;;;;;;2.35;0.70;;;;;;;3.90;100.00;94657.56;5055778;28;24432;-74
2023/04/13 02:54:16;;;;;;;2.20;0.77;;;;;;;3.90;100.00;94649.88;5054960;28;24444;-74
2023/04/13 02:56:43;;;;;;;3.38;0.80;;;;;;;3.98;100.00;94650.28;5055765;28;25090;-74
2023/04/13 02:59:10;;;;;;;2.95;1.00;;;;;;;4.02;100.00;94651.78;5062338;28;24447;-74
2023/04/13 03:01:36;;;;;;;2.67;0.80;;;;;;;3.92;100.00;94648.06;5057286;28;24486;-74
2023/04/13 03:04:03;;;;;;;2.72;0.82;;;;;;;4.03;100.00;94659.34;5054147;28;24431;-73
2023/04/13 03:06:30;;;;;;;2.47;0.70;;;;;;;3.97;100.00;94666.56;5060997;28;24439;-74
2023/04/13 03:08:58;;;;;;;3.17;0.90;;;;;;;3.97;100.00;94674.22;5065014;28;25008;-74
2023/04/13 03:11:25;;;;;;;2.60;0.70;;;;;;;3.94;100.00;94682.13;5057719;28;24431;-74
2023/04/13 03:13:53;;;;;;;1.42;0.65;;;;;;;4.02;100.00;94683.34;5062946;28;24844;-74
2023/04/13 03:16:19;;;;;;;1.30;0.60;;;;;;;4.06;100.00;94684.00;5057487;28;24461;-74
2023/04/13 03:18:46;;;;;;;4.95;0.68;;;;;;;4.33;100.00;94692.72;5055753;28;24443;-73
2023/04/13 03:21:12;;;;;;;3.30;1.00;;;;;;;4.58;100.00;94697.31;5058153;28;24985;-74
2023/04/13 03:23:39;;;;;;;1.95;0.75;;;;;;;4.35;100.00;94695.22;5063701;28;24849;-74
2023/04/13 03:26:07;;;;;;;2.28;1.00;;;;;;;4.35;100.00;94701.16;5058787;28;24530;-74
2023/04/13 03:28:34;;;;;;;3.67;0.82;;;;;;;4.27;100.00;94712.75;5064525;28;24435;-73
2023/04/13 03:31:00;;;;;;;5.72;1.15;;;;;;;4.40;100.00;94707.75;5058866;28;24814;-74
2023/04/13 03:33:26;;;;;;;2.38;0.95;;;;;;;4.27;100.00;94715.31;5050630;28;24459;-74
2023/04/13 03:35:53;;;;;;;3.10;0.70;;;;;;;4.59;100.00;94719.47;5057789;28;24439;-74
2023/04/13 03:38:19;;;;;;;2.10;0.85;;;;;;;4.43;100.00;94722.97;5049763;28;24446;-74
2023/04/13 03:40:46;;;;;;;2.38;0.70;;;;;;;4.38;100.00;94725.81;5057556;28;24442;-74
2023/04/13 03:43:14;;;;;;;3.08;0.70;;;;;;;4.33;100.00;94731.16;5057143;28;24462;-74
2023/04/13 03:45:40;;;;;;;3.03;1.00;;;;;;;4.23;100.00;94730.03;5053561;28;24443;-74
2023/04/13 03:48:07;;;;;;;6.53;0.93;;;;;;;4.20;100.00;94729.38;5049856;28;24837;-75
2023/04/13 03:50:33;;;;;;;3.00;0.77;;;;;;;4.27;100.00;94734.09;5057287;28;25098;-74
2023/04/13 03:53:00;;;;;;;1.67;0.70;;;;;;;4.28;100.00;94734.91;5058827;28;24438;-74
2023/04/13 03:55:26;;;;;;;3.78;0.85;;;;;;;4.37;100.00;94729.25;5065934;28;24430;-74
2023/04/13 03:57:54;;;;;;;3.17;0.88;;;;;;;4.45;100.00;94721.16;5054880;28;24828;-74
2023/04/13 04:00:22;;;;;;;2.08;0.73;;;;;;;4.36;100.00;94718.19;5064376;28;25065;-74
2023/04/13 04:02:48;;;;;;;2.35;0.80;;;;;;;4.01;100.00;94716.75;5062600;28;24465;-74
2023/04/13 04:05:15;;;;;;;3.25;1.00;;;;;;;4.03;100.00;94710.59;5064647;28;24435;-74
2023/04/13 04:07:41;;;;;;;1.92;1.00;;;;;;;3.91;100.00;94708.72;5062440;28;24998;-74
2023/04/13 04:10:09;;;;;;;4.10;0.95;;;;;;;3.87;100.00;94715.72;5053840;28;24502;-74
2023/04/13 04:12:35;;;;;;;3.53;1.00;;;;;;;3.83;100.00;94704.00;5066816;28;24981;-74
2023/04/13 04:15:02;;;;;;;2.72;0.60;;;;;;;3.76;100.00;94712.09;5063763;28;24430;-74
2023/04/13 04:17:29;;;;;;;3.75;0.88;;;;;;;3.61;100.00;94712.00;5066543;28;25122;-74
2023/04/13 04:19:56;;;;;;;5.43;1.48;;;;;;;3.56;100.00;94723.34;5061333;28;24455;-73
2023/04/13 04:22:28;;;;;;;4.13;1.23;;;;;;;3.46;100.00;94724.75;5061021;28;25006;-74
2023/04/13 04:24:57;;;;;;;2.83;0.98;;;;;;;3.50;100.00;94723.69;5057512;28;25062;-74
2023/04/13 04:27:25;;;;;;;2.30;0.82;;;;;;;3.58;100.00;94729.25;5055353;28;24546;-74
2023/04/13 04:29:51;;;;;;;3.70;1.00;;;;;;;3.56;100.00;94746.41;5056609;28;24427;-75
2023/04/13 04:32:18;;;;;;;4.35;1.10;;;;;;;3.68;100.00;94742.41;5058920;28;24788;-74
2023/04/13 04:34:51;;;;;;;6.78;1.10;;;;;;;3.75;100.00;94752.25;5052859;28;24831;-75
2023/04/13 04:37:20;;;;;;;2.05;0.80;;;;;;;3.74;100.00;94744.63;5060016;28;24431;-74
2023/04/13 04:39:47;;;;;;;3.50;1.03;;;;;;;3.81;100.00;94753.63;5067662;28;24431;-74
2023/04/13 04:42:13;;;;;;;3.20;1.20;;;;;;;3.90;100.00;94763.41;5060795;28;25203;-74
2023/04/13 04:44:42;;;;;;;3.28;0.90;;;;;;;3.98;100.00;94756.16;5054261;28;24454;-74
2023/04/13 04:47:08;;;;;;;3.03;1.27;;;;;;;4.08;100.00;94759.06;5053833;28;24997;-74
2023/04/13 04:49:35;;;;;;;2.43;1.20;;;;;;;4.05;100.00;94760.03;5055648;28;24519;-74
2023/04/13 04:52:03;;;;;;;5.63;1.40;;;;;;;4.24;100.00;94766.75;5064036;28;25030;-75
2023/04/13 04:54:29;;;;;;;5.85;2.00;;;;;;;4.23;100.00;94765.91;5062147;28;24434;-74
2023/04/13 04:56:56;;;;;;;5.50;1.77;;;;;;;4.35;100.00;94764.41;5059188;28;24459;-74
2023/04/13 04:59:23;;;;;;;7.85;2.20;;;;;;;4.34;100.00;94771.28;5061764;28;25049;-74
2023/04/13 05:01:50;;;;;;;7.13;2.20;;;;;;;4.26;100.00;94770.84;5059594;28;24502;-75
2023/04/13 05:04:16;;;;;;;3.40;1.60;;;;;;;4.31;100.00;94775.75;5052766;28;24447;-75
2023/04/13 05:06:43;;;;;;;9.40;1.70;;;;;;;4.32;100.00;94780.78;5057633;28;24482;-74
2023/04/13 05:09:11;;;;;;;11.23;1.60;;;;;;;4.20;100.00;94780.63;5064280;28;24522;-74
2023/04/13 05:11:37;;;;;;;5.78;1.65;;;;;;;4.09;100.00;94796.56;5062995;28;24478;-74
2023/04/13 05:14:04;;;;;;;3.80;1.13;;;;;;;4.02;100.00;94783.25;5059522;28;24435;-74
2023/04/13 05:16:32;;;;;;;6.28;1.63;;;;;;;3.90;100.00;94795.91;5059033;28;24522;-74
2023/04/13 05:18:59;;;;;;;5.00;1.40;;;;;;;3.73;100.00;94800.13;5062119;28;25028;-75
2023/04/13 05:21:26;;;;;;;4.07;1.08;;;;;;;3.81;100.00;94803.13;5063141;28;25517;-75
2023/04/13 05:23:52;;;;;;;4.72;1.05;;;;;;;3.80;100.00;94801.47;5059410;28;24707;-74
2023/04/13 05:26:20;;;;;;;5.13;1.30;;;;;;;3.74;100.00;94799.22;5054351;28;25007;-74
2023/04/13 05:28:47;;;;;;;4.07;1.27;;;;;;;3.73;100.00;94804.44;5055702;28;24431;-75
2023/04/13 05:31:14;;;;;;;4.20;1.20;;;;;;;3.72;100.00;94795.09;5051529;28;24441;-74
2023/04/13 05:33:41;;;;;;;5.70;1.20;;;;;;;3.74;100.00;94804.34;5063963;28;24436;-74
2023/04/13 05:36:08;;;;;;;3.67;1.30;;;;;;;3.61;100.00;94801.59;5055111;28;24442;-76
2023/04/13 05:38:35;;;;;;;3.25;1.35;;;;;;;3.59;100.00;94803.41;5061894;28;24446;-75
2023/04/13 05:41:02;;;;;;;6.60;1.92;;;;;;;3.56;100.00;94815.53;5053449;28;24446;-77
2023/04/13 05:43:30;;;;;;;4.80;1.60;;;;;;;3.56;100.00;94807.84;5053578;28;24810;-78
2023/04/13 05:45:56;;;;;;;4.47;1.70;;;;;;;3.66;100.00;94811.59;5064863;28;24535;-77
2023/04/13 05:48:23;;;;;;;3.78;1.42;;;;;;;3.66;100.00;94815.91;5058250;28;24427;-75
2023/04/13 05:50:49;;;;;;;2.87;1.50;;;;;;;3.76;100.00;94805.09;5063395;28;25027;-75
2023/04/13 05:53:16;;;;;;;3.73;1.50;;;;;;;3.68;100.00;94802.13;5058373;28;24793;-76
2023/04/13 05:55:43;;;;;;;4.50;1.40;;;;;;;3.68;100.00;94806.41;5057519;28;24457;-74
2023/04/13 05:58:10;;;;;;;3.87;1.60;;;;;;;3.74;100.00;94800.97;5061672;28;24536;-74
2023/04/13 06:00:38;;;;;;;8.20;1.30;;;;;;;3.78;100.00;94789.66;5058069;28;24530;-75
2023/04/13 06:03:05;;;;;;;4.68;1.40;;;;;;;3.87;100.00;94796.88;5056449;28;24513;-75
2023/04/13 06:05:34;;;;;;;4.03;1.23;;;;;;;3.99;100.00;94798.78;5056760;28;24432;-74
2023/04/13 06:08:01;;;;;;;2.90;1.10;;;;;;;3.98;100.00;94802.25;5057373;28;24797;-74
2023/04/13 06:10:27;;;;;;;5.10;1.40;;;;;;;3.95;100.00;94820.34;5062016;28;24443;-73
2023/04/13 06:12:54;;;;;;;3.10;1.00;;;;;;;4.05;100.00;94818.97;5054286;28;24431;-75
2023/04/13 06:15:21;;;;;;;6.60;1.27;;;;;;;3.96;100.00;94816.06;5055868;28;24806;-73
2023/04/13 06:17:51;;;;;;;3.17;1.02;;;;;;;4.06;100.00;94819.78;5051846;28;24434;-73
2023/04/13 06:20:17;;;;;;;3.20;1.33;;;;;;;4.24;100.00;94825.69;5058231;28;25024;-73
2023/04/13 06:22:44;;;;;;;5.78;1.10;;;;;;;4.29;100.00;94821.13;5059447;28;24461;-72
2023/04/13 06:25:10;;;;;;;4.13;1.42;;;;;;;4.43;100.00;94816.09;5060897;28;24431;-74
2023/04/13 06:27:37;;;;;;;8.18;1.40;;;;;;;4.46;100.00;94821.06;5053648;28;24443;-75
2023/04/13 06:30:05;;;;;;;2.33;1.10;;;;;;;4.76;100.00;94820.31;5059416;28;24519;-75
2023/04/13 06:32:32;;;;;;;5.15;1.40;;;;;;;4.90;100.00;94827.25;5058524;28;24439;-75
2023/04/13 06:34:59;;;;;;;2.95;1.08;;;;;;;4.95;100.00;94826.06;5052526;28;24442;-76
2023/04/13 06:37:27;;;;;;;5.43;1.50;;;;;;;5.19;100.00;94825.59;5053430;28;25117;-76
2023/04/13 06:39:54;;;;;;;4.85;1.40;;;;;;;4.91;100.00;94823.75;5050864;28;24998;-76
2023/04/13 06:42:20;;;;;;;8.35;1.55;;;;;;;5.00;100.00;94815.53;5058771;28;24449;-74
2023/04/13 06:44:47;;;;;;;3.95;1.27;;;;;;;4.96;100.00;94820.00;5053007;28;24435;-76
2023/04/13 06:47:13;;;;;;;5.35;1.33;;;;;;;5.18;100.00;94814.50;5062702;28;24442;-75
2023/04/13 06:49:39;;;;;;;4.28;1.10;;;;;;;4.89;100.00;94812.75;5057080;28;24447;-76
2023/04/13 06:52:07;;;;;;;7.05;1.38;;;;;;;4.90;100.00;94810.09;5064381;28;24450;-75
2023/04/13 06:54:35;;;;;;;6.97;1.50;;;;;;;4.89;100.00;94812.75;5055856;28;25069;-75
2023/04/13 06:57:01;;;;;;;4.65;1.70;;;;;;;4.86;100.00;94813.75;5059434;28;24441;-75
2023/04/13 06:59:28;;;;;;;5.03;1.60;;;;;;;4.95;100.00;94810.66;5057607;28;24607;-74
2023/04/13 07:01:54;;;;;;;10.47;1.67;;;;;;;4.87;100.00;94812.03;5060329;28;24574;-75
2023/04/13 07:04:21;;;;;;;4.83;1.23;;;;;;;4.82;100.00;94813.09;5052797;28;24452;-74
2023/04/13 07:06:47;;;;;;;3.83;1.40;;;;;;;4.89;100.00;94815.31;5064365;28;24483;-76
2023/04/13 07:09:15;;;;;;;5.10;1.73;;;;;;;4.93;100.00;94819.34;5054214;28;24431;-75
2023/04/13 07:11:42;;;;;;;3.42;1.30;;;;;;;4.98;100.00;94815.63;5056219;28;25117;-75
2023/04/13 07:14:08;;;;;;;4.65;1.42;;;;;;;4.93;100.00;94821.91;5074568;28;24442;-75
2023/04/13 07:16:35;;;;;;;7.93;1.75;;;;;;;4.95;100.00;94828.63;5058832;28;24438;-76
2023/04/13 07:19:01;;;;;;;7.05;1.90;;;;;;;5.13;100.00;94831.91;5061101;28;24441;-75
2023/04/13 07:21:30;;;;;;;5.75;2.00;;;;;;;5.17;100.00;94832.56;5052850;28;24436;-76
2023/04/13 07:23:57;;;;;;;7.05;1.90;;;;;;;5.15;100.00;94837.75;5067699;28;24447;-75
2023/04/13 07:26:25;;;;;;;8.10;1.80;;;;;;;5.34;100.00;94830.69;5058738;28;24973;-75
2023/04/13 07:28:51;;;;;;;4.65;1.63;;;;;;;5.12;100.00;94825.13;5051404;28;24489;-75
2023/04/13 07:31:17;;;;;;;4.60;1.58;;;;;;;5.12;100.00;94825.13;5054425;28;24435;-76
2023/04/13 07:33:44;;;;;;;7.50;1.42;;;;;;;5.10;100.00;94825.19;5058679;28;24439;-75
2023/04/13 07:36:11;;;;;;;5.80;1.55;;;;;;;5.17;100.00;94814.59;5055586;28;24629;-75
2023/04/13 07:38:38;;;;;;;4.40;1.60;;;;;;;5.31;100.00;94824.91;5064972;28;24451;-76
2023/04/13 07:41:05;;;;;;;4.90;1.50;;;;;;;5.43;100.00;94813.09;5054692;28;25010;-75
2023/04/13 07:43:34;;;;;;;5.78;1.90;;;;;;;5.63;100.00;94822.22;5064607;28;25019;-74
2023/04/13 07:46:00;;;;;;;7.30;1.77;;;;;;;5.57;100.00;94826.78;5054286;28;24446;-76
2023/04/13 07:48:27;;;;;;;6.45;1.77;;;;;;;5.48;100.00;94822.19;5057338;28;24442;-75
2023/04/13 07:50:53;;;;;;;6.97;1.80;;;;;;;5.42;100.00;94819.97;5058738;28;24435;-75
2023/04/13 07:53:19;;;;;;;5.27;1.60;;;;;;;5.62;100.00;94818.81;5052913;28;24435;-77
2023/04/13 07:55:46;;;;;;;6.00;1.50;;;;;;;6.18;100.00;94818.97;5056630;28;24438;-76
2023/04/13 07:58:12;;;;;;;8.63;1.80;;;;;;;6.53;100.00;94822.78;5056379;28;24439;-76
2023/04/13 08:00:41;;;;;;;6.65;1.85;;;;;;;6.71;100.00;94836.25;5069581;28;24438;-75
2023/04/13 08:03:07;;;;;;;5.78;1.63;;;;;;;6.96;100.00;94825.22;5078585;28;24987;-76
2023/04/13 08:05:35;;;;;;;5.20;1.30;;;;;;;6.68;100.00;94831.28;5073844;28;25022;-74
2023/04/13 08:08:01;;;;;;;4.22;1.30;;;;;;;6.76;100.00;94841.09;5054904;28;24497;-77
2023/04/13 08:10:28;;;;;;;5.93;1.50;;;;;;;7.09;100.00;94830.41;5055878;28;24434;-74
2023/04/13 08:12:54;;;;;;;6.20;1.50;;;;;;;7.57;100.00;94825.59;5062133;28;24554;-75
2023/04/13 08:15:21;;;;;;;5.07;1.50;;;;;;;7.32;100.00;94828.94;5059899;28;24832;-75
2023/04/13 08:17:49;;;;;;;5.72;1.40;;;;;;;7.30;100.00;94830.75;5066119;28;21171;-74
2023/04/13 08:20:15;;;;;;;5.93;1.38;;;;;;;7.45;100.00;94832.38;5052948;28;21179;-74
2023/04/13 08:22:42;;;;;;;3.60;1.17;;;;;;;7.09;100.00;94839.91;5052617;28;20813;-75
2023/04/13 08:25:09;;;;;;;4.53;1.10;;;;;;;7.08;100.00;94841.63;5064965;28;20837;-77
2023/04/13 08:27:35;;;;;;;5.85;1.40;;;;;;;6.75;100.00;94836.88;5051260;28;20783;-77
2023/04/13 08:30:04;;;;;;;8.52;1.25;;;;;;;6.52;100.00;94835.72;5057027;28;24435;-76
2023/04/13 08:32:30;;;;;;;3.63;1.40;;;;;;;6.45;100.00;94837.84;5060475;28;20824;-76
2023/04/13 08:34:58;;;;;;;6.50;1.40;;;;;;;6.46;100.00;94838.69;5063983;28;24438;-76
2023/04/13 08:37:27;;;;;;;3.67;1.50;;;;;;;6.52;100.00;94839.09;5061383;28;20779;-76
2023/04/13 08:39:58;;;;;;;5.75;1.45;;;;;;;6.39;100.00;94848.50;5061032;28;24969;-77
2023/04/13 08:42:26;;;;;;;4.55;1.42;;;;;;;6.19;100.00;94847.16;5055678;28;20695;-77
2023/04/13 08:44:57;;;;;;;7.07;2.35;;;;;;;6.41;100.00;94853.56;5066975;28;25038;-77
2023/04/13 08:47:26;;;;;;;3.65;1.30;;;;;;;6.62;100.00;94859.97;5064477;28;20711;-75
2023/04/13 08:49:56;;;;;;;3.80;1.33;;;;;;;6.87;100.00;94859.25;5055883;28;20847;-76
2023/04/13 08:52:24;;;;;;;4.50;1.50;;;;;;;6.94;100.00;94852.00;5060791;28;24443;-76
2023/04/13 08:54:53;;;;;;;5.18;1.27;;;;;;;7.21;100.00;94847.66;5060207;28;24441;-76
2023/04/13 08:57:20;;;;;;;6.07;1.58;;;;;;;7.74;100.00;94851.03;5058334;28;24889;-76
2023/04/13 08:59:51;;;;;;;5.97;1.63;;;;;;;7.53;100.00;94842.16;5058700;28;24439;-77
2023/04/13 09:02:22;;;;;;;6.13;1.67;;;;;;;7.74;100.00;94848.47;5061247;28;20691;-77
2023/04/13 09:04:49;;;;;;;4.83;1.90;;;;;;;7.55;100.00;94844.63;5061252;28;21356;-79
2023/04/13 09:07:26;;;;;;;6.03;2.00;;;;;;;7.50;100.00;94843.19;5063721;28;20809;-78
2023/04/13 09:09:56;;;;;;;5.28;1.65;;;;;;;7.45;100.00;94837.53;5060295;28;20849;-77
2023/04/13 09:12:23;;;;;;;5.35;1.92;;;;;;;7.54;100.00;94841.22;5056965;28;20732;-77
2023/04/13 09:14:50;;;;;;;4.55;1.60;;;;;;;7.54;100.00;94841.22;5056882;28;20778;-75
2023/04/13 09:17:24;;;;;;;7.20;1.65;;;;;;;7.64;100.00;94844.00;5060781;28;20784;-77
2023/04/13 09:19:51;;;;;;;3.57;1.20;;;;;;;7.50;100.00;94840.59;5056491;28;20782;-77
2023/04/13 09:22:17;;;;;;;5.63;1.60;;;;;;;7.65;100.00;94846.50;5058382;28;20807;-78
2023/04/13 09:24:45;;;;;;;2.85;1.30;;;;;;;7.63;100.00;94847.53;5061769;28;24463;-77
2023/04/13 09:27:19;;;;;;;5.18;1.60;;;;;;;7.47;100.00;94858.03;5052959;28;20780;-78
2023/04/13 09:29:50;;;;;;;6.77;1.70;;;;;;;7.33;100.00;94863.22;5053688;28;20777;-78
2023/04/13 09:32:19;;;;;;;6.28;1.90;;;;;;;7.23;100.00;94853.53;5057911;28;20770;-77
2023/04/13 09:34:56;;;;;;;4.13;1.50;;;;;;;7.35;100.00;94866.56;5052954;28;21350;-77
2023/04/13 09:37:22;;;;;;;5.57;1.50;;;;;;;7.33;100.00;94861.47;5057951;28;20670;-77
2023/04/13 09:39:50;;;;;;;5.30;1.93;;;;;;;7.15;100.00;94860.91;5059122;28;24431;-76
2023/04/13 09:42:18;;;;;;;5.15;1.55;;;;;;;7.24;100.00;94859.50;5058645;28;20818;-76
2023/04/13 09:44:55;;;;;;;7.03;1.70;;;;;;;7.18;100.00;94858.13;5059940;28;20895;-76
2023/04/13 09:47:22;;;;;;;5.90;2.00;;;;;;;7.26;100.00;94857.66;5057132;28;24431;-76
2023/04/13 09:49:49;;;;;;;8.32;1.83;;;;;;;7.25;100.00;94849.09;5057386;28;24439;-75
2023/04/13 09:52:19;;;;;;;10.25;2.45;;;;;;;7.27;100.00;94849.00;5064517;28;24462;-77
2023/04/13 09:54:50;;;;;;;6.22;2.10;;;;;;;7.16;100.00;94841.16;5070119;28;20722;-77
2023/04/13 09:57:23;;;;;;;7.10;2.22;;;;;;;7.22;100.00;94853.63;5063889;28;25010;-76
2023/04/13 09:59:50;;;;;;;7.68;1.92;;;;;;;7.33;100.00;94851.19;5054920;28;20794;-75
2023/04/13 10:02:19;;;;;;;6.45;2.20;;;;;;;7.47;100.00;94855.44;5051866;28;24442;-75
2023/04/13 10:04:45;;;;;;;6.43;2.03;;;;;;;7.42;100.00;94852.34;5062597;28;20824;-75
2023/04/13 10:07:12;;;;;;;7.60;1.90;;;;;;;7.38;100.00;94854.31;5055747;28;24520;-74
2023/04/13 10:09:38;;;;;;;8.40;2.20;;;;;;;7.44;100.00;94856.47;5060465;28;24560;-75
2023/04/13 10:12:10;;;;;;;6.50;2.07;;;;;;;7.51;100.00;94847.41;5057052;28;24498;-75
2023/04/13 10:14:39;;;;;;;6.38;2.30;;;;;;;7.60;100.00;94848.56;5060983;28;21205;-75
2023/04/13 10:17:18;;;;;;;3.90;1.88;;;;;;;7.65;100.00;94850.84;5054535;28;20839;-75
2023/04/13 10:19:47;;;;;;;6.65;2.13;;;;;;;7.71;100.00;94842.69;5057324;28;20657;-75
2023/04/13 10:22:15;;;;;;;9.82;1.80;;;;;;;7.94;100.00;94844.56;5057075;28;20729;-75
2023/04/13 10:24:42;;;;;;;6.70;2.40;;;;;;;7.78;100.00;94843.94;5058406;28;20790;-73
2023/04/13 10:27:15;;;;;;;6.75;2.13;;;;;;;7.81;100.00;94845.50;5059757;28;24430;-75
2023/04/13 10:29:42;;;;;;;6.18;1.90;;;;;;;7.54;100.00;94837.84;5057401;28;20665;-74
2023/04/13 10:32:20;;;;;;;5.95;1.80;;;;;;;7.77;100.00;94844.88;5067465;28;21163;-75
2023/04/13 10:34:46;;;;;;;6.27;2.07;;;;;;;7.52;100.00;94841.31;5059856;28;20648;-75
2023/04/13 10:37:18;;;;;;;6.10;2.22;;;;;;;7.35;100.00;94839.03;5056782;28;20800;-76
2023/04/13 10:39:44;;;;;;;6.82;2.00;;;;;;;7.30;100.00;94835.09;5065450;28;20691;-78
2023/04/13 10:42:12;;;;;;;5.00;1.73;;;;;;;7.42;100.00;94830.00;5057635;28;20778;-78
2023/04/13 10:44:43;;;;;;;5.88;2.05;;;;;;;7.46;100.00;94828.03;5067738;28;20823;-78
2023/04/13 10:47:11;;;;;;;7.50;2.17;;;;;;;7.38;100.00;94838.84;5060394;28;20867;-77
2023/04/13 10:49:38;;;;;;;6.90;2.05;;;;;;;7.38;100.00;94846.56;5060008;28;21189;-77
2023/04/13 10:52:04;;;;;;;2.95;1.30;;;;;;;7.40;100.00;94834.41;5064231;28;20783;-77
2023/04/13 10:54:34;;;;;;;3.30;1.33;;;;;;;7.29;100.00;94847.16;5060682;28;24439;-76
2023/04/13 10:57:02;;;;;;;4.68;1.33;;;;;;;7.17;100.00;94856.50;5054941;28;20823;-77
2023/04/13 10:59:44;;;;;;;3.45;1.65;;;;;;;7.17;100.00;94853.09;5063434;28;24493;-78
2023/04/13 11:02:13;;;;;;;3.72;1.10;;;;;;;7.33;100.00;94856.31;5056970;28;20741;-76
2023/04/13 11:04:40;;;;;;;4.63;1.40;;;;;;;7.42;100.00;94847.19;5059021;28;24534;-77
2023/04/13 11:07:08;;;;;;;2.72;0.80;;;;;;;7.31;100.00;94857.38;5061825;28;20809;-77
2023/04/13 11:09:35;;;;;;;2.87;1.10;;;;;;;7.19;100.00;94859.81;5058234;28;20779;-77
2023/04/13 11:12:01;;;;;;;3.40;1.13;;;;;;;7.36;100.00;94863.03;5053496;28;24440;-77
2023/04/13 11:14:28;;;;;;;2.27;0.70;;;;;;;7.55;100.00;94868.66;5057290;28;24522;-77
2023/04/13 11:16:56;;;;;;;2.88;0.90;;;;;;;7.62;100.00;94859.59;5058710;28;24443;-76
2023/04/13 11:19:23;;;;;;;2.50;0.83;;;;;;;7.86;100.00;94854.59;5052772;28;20904;-74
2023/04/13 11:21:54;;;;;;;2.37;0.80;;;;;;;7.93;100.00;94854.97;5055173;28;24510;-74
2023/04/13 11:24:26;;;;;;;2.25;0.80;;;;;;;8.08;100.00;94851.34;5055988;28;20836;-74
2023/04/13 11:26:53;;;;;;;2.08;0.70;;;;;;;8.18;100.00;94846.41;5054065;28;20692;-75
2023/04/13 11:29:20;;;;;;;4.45;0.60;;;;;;;7.92;100.00;94841.25;5058583;28;21622;-75
2023/04/13 11:31:48;;;;;;;0.63;0.32;;;;;;;7.79;100.00;94840.44;5056187;28;20809;-75
2023/04/13 11:34:24;;;;;;;0.95;0.40;;;;;;;7.89;100.00;94838.88;5055322;28;20770;-74
2023/04/13 11:36:59;;;;;;;1.50;0.47;;;;;;;8.06;100.00;94842.09;5055255;28;20690;-74